Time;durP1;ratioP1;P1;durP2;ratioP2;P2;SDS_P1;SDS_P2;PMS_P1;PMS_P2;Temp;Humidity;BMP_temperature;BMP_pressure;BME280_temperature;BME280_humidity;BME280_pressure;Samples;Min_cycle;Max_cycle;Signal;HPM_P1;HPM_P2
2023/03/17 00:01:08;;;;;;;;;;;;;;;-1.49;nan;99235.09;5020517;28;20376;-61
2023/03/17 00:03:39;;;;;;;;;;;;;;;-1.55;nan;99234.84;5028730;28;19974;-63
2023/03/17 00:06:06;;;;;;;;;;;;;;;-1.58;nan;99236.38;5029797;28;20011;-59
2023/03/17 00:08:32;;;;;;;;;;;;;;;-1.63;nan;99235.34;5029817;28;19920;-59
2023/03/17 00:10:58;;;;;;;;;;;;;;;-1.59;nan;99237.19;5029584;28;19924;-61
2023/03/17 00:13:24;;;;;;;;;;;;;;;-1.54;nan;99233.19;5030431;28;20300;-60
2023/03/17 00:15:55;;;;;;;;;;;;;;;-1.60;nan;99227.91;5028702;28;20018;-62
2023/03/17 00:18:22;;;;;;;;;;;;;;;-1.60;nan;99230.44;5028254;28;20375;-61
2023/03/17 00:20:48;;;;;;;;;;;;;;;-1.52;nan;99217.34;5025776;28;20447;-59
2023/03/17 00:23:17;;;;;;;;;;;;;;;-1.56;nan;99218.03;5027555;28;19963;-62
2023/03/17 00:25:44;;;;;;;;;;;;;;;-1.52;nan;99216.50;5029317;28;20302;-62
2023/03/17 00:28:23;;;;;;;;;;;;;;;-1.57;nan;99225.53;5029774;28;19921;-61
2023/03/17 00:30:51;;;;;;;;;;;;;;;-1.67;nan;99215.91;5028328;28;19921;-58
2023/03/17 00:33:18;;;;;;;;;;;;;;;-1.76;nan;99208.03;5029598;28;20016;-60
2023/03/17 00:35:45;;;;;;;;;;;;;;;-1.81;nan;99201.97;5029634;28;19925;-59
2023/03/17 00:38:15;;;;;;;;;;;;;;;-1.85;nan;99195.97;5028713;28;20219;-60
2023/03/17 00:40:40;;;;;;;;;;;;;;;-1.88;nan;99196.72;5029129;28;19921;-60
2023/03/17 00:43:07;;;;;;;;;;;;;;;-1.89;nan;99191.63;5029235;28;19921;-60
2023/03/17 00:45:35;;;;;;;;;;;;;;;-1.86;nan;99185.03;5032447;28;19932;-62
2023/03/17 00:48:02;;;;;;;;;;;;;;;-1.80;nan;99191.13;5030311;28;19944;-59
2023/03/17 00:50:27;;;;;;;;;;;;;;;-1.81;nan;99190.25;5039775;28;19983;-59
2023/03/17 00:52:55;;;;;;;;;;;;;;;-1.82;nan;99182.69;5027995;28;20015;-60
2023/03/17 00:55:21;;;;;;;;;;;;;;;-1.81;nan;99176.81;5027636;28;19924;-60
2023/03/17 00:57:48;;;;;;;;;;;;;;;-1.75;nan;99172.06;5031951;28;19999;-61
2023/03/17 01:00:19;;;;;;;;;;;;;;;-1.85;nan;99181.75;5031977;28;19925;-60
2023/03/17 01:02:45;;;;;;;;;;;;;;;-1.91;nan;99176.47;5031015;28;20380;-61
2023/03/17 01:05:11;;;;;;;;;;;;;;;-1.91;nan;99166.41;5030908;28;19935;-61
2023/03/17 01:07:39;;;;;;;;;;;;;;;-1.90;nan;99168.13;5034558;28;20005;-59
2023/03/17 01:10:31;;;;;;;;;;;;;;;-1.86;nan;99157.41;5032197;28;20017;-60
2023/03/17 01:12:57;;;;;;;;;;;;;;;-1.83;nan;99151.66;5030714;28;19924;-58
2023/03/17 01:15:24;;;;;;;;;;;;;;;-1.91;nan;99143.81;5032025;28;19932;-61
2023/03/17 01:17:50;;;;;;;;;;;;;;;-1.93;nan;99135.38;5032320;28;20458;-61
2023/03/17 01:20:23;;;;;;;;;;;;;;;-1.95;nan;99129.41;5032057;28;20481;-60
2023/03/17 01:22:50;;;;;;;;;;;;;;;-1.96;nan;99117.69;5031244;28;20004;-60
2023/03/17 01:25:16;;;;;;;;;;;;;;;-2.00;nan;99109.97;5039551;28;19940;-60
2023/03/17 01:27:42;;;;;;;;;;;;;;;-1.98;nan;99126.81;5030837;28;19917;-59
2023/03/17 01:30:20;;;;;;;;;;;;;;;-1.95;nan;99111.84;5039730;28;19925;-60
2023/03/17 01:32:46;;;;;;;;;;;;;;;-1.99;nan;99105.00;5029803;28;19920;-61
2023/03/17 01:35:12;;;;;;;;;;;;;;;-2.02;nan;99102.38;5039551;28;19932;-59
2023/03/17 01:37:37;;;;;;;;;;;;;;;-1.93;nan;99099.34;5030328;28;19998;-60
2023/03/17 01:40:04;;;;;;;;;;;;;;;-1.93;nan;99104.38;5030976;28;20463;-61
2023/03/17 01:42:30;;;;;;;;;;;;;;;-1.87;nan;99104.63;5032417;28;20379;-59
2023/03/17 01:45:01;;;;;;;;;;;;;;;-1.68;nan;99103.63;5031411;28;20269;-60
2023/03/17 01:47:30;;;;;;;;;;;;;;;-1.68;nan;99101.09;5031921;28;19921;-60
2023/03/17 01:50:05;;;;;;;;;;;;;;;-1.63;nan;99092.06;5031093;28;19936;-62
2023/03/17 01:52:33;;;;;;;;;;;;;;;-1.67;nan;99091.13;5031189;28;19929;-67
2023/03/17 01:55:06;;;;;;;;;;;;;;;-1.60;nan;99094.69;5039126;28;19921;-60
2023/03/17 01:57:36;;;;;;;;;;;;;;;-1.58;nan;99083.06;5031664;28;20313;-59
2023/03/17 02:00:05;;;;;;;;;;;;;;;-1.66;nan;99086.94;5039175;28;20237;-59
2023/03/17 02:02:40;;;;;;;;;;;;;;;-1.56;nan;99083.94;5030916;28;19921;-59
2023/03/17 02:05:08;;;;;;;;;;;;;;;-1.59;nan;99083.84;5030968;28;19925;-61
2023/03/17 02:07:34;;;;;;;;;;;;;;;-1.63;nan;99092.06;5030275;28;19924;-60
2023/03/17 02:10:01;;;;;;;;;;;;;;;-1.69;nan;99086.81;5029694;28;19921;-61
2023/03/17 02:12:28;;;;;;;;;;;;;;;-1.78;nan;99084.81;5038098;28;20263;-59
2023/03/17 02:14:54;;;;;;;;;;;;;;;-1.81;nan;99082.22;5034316;28;19994;-60
2023/03/17 02:17:20;;;;;;;;;;;;;;;-1.76;nan;99069.81;5029146;28;20003;-59
2023/03/17 02:19:46;;;;;;;;;;;;;;;-1.78;nan;99076.47;5029718;28;20016;-61
2023/03/17 02:22:12;;;;;;;;;;;;;;;-1.82;nan;99077.16;5031238;28;20292;-60
2023/03/17 02:24:42;;;;;;;;;;;;;;;-1.79;nan;99069.72;5032169;28;19970;-61
2023/03/17 02:27:12;;;;;;;;;;;;;;;-1.80;nan;99056.28;5028450;28;19929;-60
2023/03/17 02:29:38;;;;;;;;;;;;;;;-1.81;nan;99051.19;5030049;28;20442;-60
2023/03/17 02:32:04;;;;;;;;;;;;;;;-1.87;nan;99056.88;5038131;28;19921;-61
2023/03/17 02:34:31;;;;;;;;;;;;;;;-1.88;nan;99055.16;5029419;28;19925;-61
2023/03/17 02:36:57;;;;;;;;;;;;;;;-1.91;nan;99060.06;5036298;28;19979;-61
2023/03/17 02:39:23;;;;;;;;;;;;;;;-1.98;nan;99048.06;5039805;28;20469;-60
2023/03/17 02:41:49;;;;;;;;;;;;;;;-1.99;nan;99051.38;5029053;28;19937;-59
2023/03/17 02:44:15;;;;;;;;;;;;;;;-2.06;nan;99055.34;5030872;28;19971;-60
2023/03/17 02:46:41;;;;;;;;;;;;;;;-2.07;nan;99055.25;5029089;28;19925;-60
2023/03/17 02:49:07;;;;;;;;;;;;;;;-2.11;nan;99059.31;5026662;28;19928;-60
2023/03/17 02:51:32;;;;;;;;;;;;;;;-2.09;nan;99065.28;5029459;28;19921;-61
2023/03/17 02:53:58;;;;;;;;;;;;;;;-2.10;nan;99053.50;5031409;28;20348;-60
2023/03/17 02:56:24;;;;;;;;;;;;;;;-2.03;nan;99059.59;5029228;28;20284;-59
2023/03/17 02:58:49;;;;;;;;;;;;;;;-2.07;nan;99061.16;5029092;28;19924;-62
2023/03/17 03:01:15;;;;;;;;;;;;;;;-2.17;nan;99055.75;5031505;28;19932;-62
2023/03/17 03:03:40;;;;;;;;;;;;;;;-2.22;nan;99064.75;5031064;28;19970;-59
2023/03/17 03:06:06;;;;;;;;;;;;;;;-2.26;nan;99053.72;5028323;28;19929;-61
2023/03/17 03:08:32;;;;;;;;;;;;;;;-2.30;nan;99056.94;5028353;28;19928;-60
2023/03/17 03:10:59;;;;;;;;;;;;;;;-2.32;nan;99054.34;5028955;28;19928;-61
2023/03/17 03:13:25;;;;;;;;;;;;;;;-2.32;nan;99048.47;5029354;28;19925;-60
2023/03/17 03:15:50;;;;;;;;;;;;;;;-2.27;nan;99053.66;5028748;28;19925;-59
2023/03/17 03:18:16;;;;;;;;;;;;;;;-2.17;nan;99048.19;5026509;28;20502;-63
2023/03/17 03:20:43;;;;;;;;;;;;;;;-2.21;nan;99042.22;5029822;28;19935;-61
2023/03/17 03:23:09;;;;;;;;;;;;;;;-2.26;nan;99048.72;5028618;28;20029;-60
2023/03/17 03:25:36;;;;;;;;;;;;;;;-2.21;nan;99043.88;5026282;28;20383;-60
2023/03/17 03:28:02;;;;;;;;;;;;;;;-2.18;nan;99044.84;5030393;28;20008;-60
2023/03/17 03:30:27;;;;;;;;;;;;;;;-2.29;nan;99051.09;5030685;28;20387;-61
2023/03/17 03:32:53;;;;;;;;;;;;;;;-2.29;nan;99055.28;5030517;28;19977;-61
2023/03/17 03:35:18;;;;;;;;;;;;;;;-2.22;nan;99053.06;5029135;28;19925;-59
2023/03/17 03:37:44;;;;;;;;;;;;;;;-2.22;nan;99053.06;5028883;28;19921;-61
2023/03/17 03:40:10;;;;;;;;;;;;;;;-2.19;nan;99054.81;5029123;28;19924;-61
2023/03/17 03:42:35;;;;;;;;;;;;;;;-2.29;nan;99038.53;5030170;28;20015;-60
2023/03/17 03:45:01;;;;;;;;;;;;;;;-2.21;nan;99033.81;5026489;28;19940;-60
2023/03/17 03:47:27;;;;;;;;;;;;;;;-2.28;nan;99031.84;5028849;28;19964;-60
2023/03/17 03:49:52;;;;;;;;;;;;;;;-2.34;nan;99040.91;5029308;28;19920;-61
2023/03/17 03:52:18;;;;;;;;;;;;;;;-2.36;nan;99026.56;5033582;28;20019;-60
2023/03/17 03:54:43;;;;;;;;;;;;;;;-2.32;nan;99024.22;5030253;28;19916;-60
2023/03/17 03:57:09;;;;;;;;;;;;;;;-2.32;nan;99030.88;5028195;28;20410;-61
2023/03/17 03:59:35;;;;;;;;;;;;;;;-2.37;nan;99028.22;5027333;28;20309;-60
2023/03/17 04:02:00;;;;;;;;;;;;;;;-2.36;nan;99024.03;5025845;28;19925;-59
2023/03/17 04:04:26;;;;;;;;;;;;;;;-2.38;nan;99026.47;5035988;28;20299;-59
2023/03/17 04:06:51;;;;;;;;;;;;;;;-2.41;nan;99025.50;5030837;28;20036;-59
2023/03/17 04:09:17;;;;;;;;;;;;;;;-2.41;nan;99035.56;5029697;28;19925;-59
2023/03/17 04:11:42;;;;;;;;;;;;;;;-2.40;nan;99034.78;5038211;28;19971;-59
2023/03/17 04:14:08;;;;;;;;;;;;;;;-2.44;nan;99033.81;5032281;28;19952;-59
2023/03/17 04:16:33;;;;;;;;;;;;;;;-2.44;nan;99028.78;5029221;28;20487;-59
2023/03/17 04:18:59;;;;;;;;;;;;;;;-2.31;nan;99022.56;5030658;28;19967;-61
2023/03/17 04:21:25;;;;;;;;;;;;;;;-2.35;nan;99010.69;5028320;28;20201;-61
2023/03/17 04:23:50;;;;;;;;;;;;;;;-2.23;nan;99010.28;5026530;28;20061;-60
2023/03/17 04:26:17;;;;;;;;;;;;;;;-2.34;nan;99009.91;5029271;28;20355;-59
2023/03/17 04:28:43;;;;;;;;;;;;;;;-2.41;nan;99016.34;5031894;28;19931;-60
2023/03/17 04:31:11;;;;;;;;;;;;;;;-2.31;nan;99022.56;5033990;28;20276;-59
2023/03/17 04:33:38;;;;;;;;;;;;;;;-2.36;nan;99014.88;5034392;28;19925;-59
2023/03/17 04:36:06;;;;;;;;;;;;;;;-2.33;nan;99009.09;5041985;28;19921;-59
2023/03/17 04:38:32;;;;;;;;;;;;;;;-2.16;nan;99002.19;5033666;28;20011;-59
2023/03/17 04:40:57;;;;;;;;;;;;;;;-2.31;nan;98997.47;5032606;28;19933;-58
2023/03/17 04:43:23;;;;;;;;;;;;;;;-2.37;nan;98995.56;5034312;28;19936;-60
2023/03/17 04:45:48;;;;;;;;;;;;;;;-2.43;nan;98992.84;5033972;28;20083;-61
2023/03/17 04:48:14;;;;;;;;;;;;;;;-2.53;nan;98999.97;5033409;28;19925;-60
2023/03/17 04:50:41;;;;;;;;;;;;;;;-2.55;nan;99001.56;5032759;28;19921;-58
2023/03/17 04:53:07;;;;;;;;;;;;;;;-2.53;nan;99004.97;5031179;28;19929;-58
2023/03/17 04:55:33;;;;;;;;;;;;;;;-2.39;nan;99011.38;5035838;28;19921;-58
2023/03/17 04:57:59;;;;;;;;;;;;;;;-2.31;nan;99012.53;5032347;28;19979;-58
2023/03/17 05:00:25;;;;;;;;;;;;;;;-2.33;nan;99009.94;5032906;28;20475;-60
2023/03/17 05:02:50;;;;;;;;;;;;;;;-2.34;nan;99007.41;5033266;28;19925;-59
2023/03/17 05:05:16;;;;;;;;;;;;;;;-2.24;nan;99011.09;5031696;28;20059;-58
2023/03/17 05:07:43;;;;;;;;;;;;;;;-2.32;nan;99003.28;5028673;28;19998;-59
2023/03/17 05:10:10;;;;;;;;;;;;;;;-2.35;nan;99008.19;5039071;28;19924;-59
2023/03/17 05:12:35;;;;;;;;;;;;;;;-2.42;nan;98996.22;5033580;28;19968;-59
2023/03/17 05:15:04;;;;;;;;;;;;;;;-2.36;nan;98999.81;5033087;28;20000;-59
2023/03/17 05:17:30;;;;;;;;;;;;;;;-2.36;nan;99001.44;5034956;28;19927;-63
2023/03/17 05:19:56;;;;;;;;;;;;;;;-2.33;nan;99004.94;5033330;28;19928;-60
2023/03/17 05:22:21;;;;;;;;;;;;;;;-2.25;nan;98999.34;5032553;28;19928;-61
2023/03/17 05:24:47;;;;;;;;;;;;;;;-2.02;nan;98996.88;5035043;28;20431;-60
2023/03/17 05:27:12;;;;;;;;;;;;;;;-1.96;nan;98996.25;5032510;28;20401;-59
2023/03/17 05:29:38;;;;;;;;;;;;;;;-1.98;nan;99005.38;5033751;28;20273;-60
2023/03/17 05:32:04;;;;;;;;;;;;;;;-2.00;nan;99007.00;5034696;28;20404;-61
2023/03/17 05:34:30;;;;;;;;;;;;;;;-1.97;nan;98999.56;5033744;28;20398;-59
2023/03/17 05:36:55;;;;;;;;;;;;;;;-2.02;nan;98980.94;5027378;28;20348;-58
2023/03/17 05:39:20;;;;;;;;;;;;;;;-1.89;nan;99003.19;5029877;28;20372;-60
2023/03/17 05:41:46;;;;;;;;;;;;;;;-1.85;nan;99003.34;5029754;28;20378;-59
2023/03/17 05:44:12;;;;;;;;;;;;;;;-1.73;nan;98980.31;5017870;28;20194;-60
2023/03/17 05:46:38;;;;;;;;;;;;;;;-1.60;nan;98996.66;5030767;28;19961;-60
2023/03/17 05:49:03;;;;;;;;;;;;;;;-1.50;nan;98996.19;5031828;28;19932;-58
2023/03/17 05:51:29;;;;;;;;;;;;;;;-1.40;nan;99000.75;5032157;28;20261;-60
2023/03/17 05:53:55;;;;;;;;;;;;;;;-1.29;nan;98996.91;5027787;28;19925;-61
2023/03/17 05:56:21;;;;;;;;;;;;;;;-1.16;nan;98996.53;5030818;28;20273;-62
2023/03/17 05:58:47;;;;;;;;;;;;;;;-1.04;nan;98991.88;5026193;28;19925;-59
2023/03/17 06:01:13;;;;;;;;;;;;;;;-0.90;nan;98994.84;5028528;28;20532;-59
2023/03/17 06:03:38;;;;;;;;;;;;;;;-0.77;nan;98993.56;5031176;28;19960;-59
2023/03/17 06:06:04;;;;;;;;;;;;;;;-0.66;nan;98989.72;5031214;28;20293;-57
2023/03/17 06:08:30;;;;;;;;;;;;;;;-0.50;nan;98994.41;5031186;28;20066;-54
2023/03/17 06:10:55;;;;;;;;;;;;;;;-0.43;nan;98997.97;5028446;28;20299;-58
2023/03/17 06:13:21;;;;;;;;;;;;;;;-0.41;nan;98982.09;5032160;28;20437;-56
2023/03/17 06:15:50;;;;;;;;;;;;;;;-0.28;nan;98991.72;5027760;28;19995;-57
2023/03/17 06:18:16;;;;;;;;;;;;;;;-0.15;nan;98990.41;5027200;28;19943;-58
2023/03/17 06:20:41;;;;;;;;;;;;;;;0.00;nan;98991.69;5029259;28;20341;-58
2023/03/17 06:23:07;;;;;;;;;;;;;;;0.09;nan;98972.59;5033733;28;20364;-57
2023/03/17 06:25:34;;;;;;;;;;;;;;;0.16;nan;98977.00;5026996;28;20253;-58
2023/03/17 06:28:01;;;;;;;;;;;;;;;0.28;nan;98987.44;5024512;28;19920;-58
2023/03/17 06:30:26;;;;;;;;;;;;;;;0.36;nan;98986.81;5028918;28;19952;-59
2023/03/17 06:32:51;;;;;;;;;;;;;;;0.53;nan;98979.69;5031816;28;20337;-56
2023/03/17 06:35:17;;;;;;;;;;;;;;;0.67;nan;98988.50;5030552;28;19936;-55
2023/03/17 06:37:43;;;;;;;;;;;;;;;0.83;nan;98989.72;5030684;28;20003;-56
2023/03/17 06:40:09;;;;;;;;;;;;;;;0.91;nan;98978.16;5029793;28;19920;-56
2023/03/17 06:42:34;;;;;;;;;;;;;;;1.10;nan;98987.88;5028904;28;20035;-58
2023/03/17 06:45:00;;;;;;;;;;;;;;;1.31;nan;98977.44;5029330;28;20298;-59
2023/03/17 06:47:26;;;;;;;;;;;;;;;1.50;nan;98981.22;5029291;28;19987;-58
2023/03/17 06:49:52;;;;;;;;;;;;;;;1.69;nan;98976.63;5030069;28;19924;-56
2023/03/17 06:52:17;;;;;;;;;;;;;;;1.88;nan;98974.44;5024004;28;20566;-58
2023/03/17 06:54:43;;;;;;;;;;;;;;;2.11;nan;98970.72;5026210;28;19927;-59
2023/03/17 06:57:09;;;;;;;;;;;;;;;2.34;nan;98973.69;5025944;28;19994;-58
2023/03/17 06:59:35;;;;;;;;;;;;;;;2.57;nan;98977.50;5025553;28;20435;-58
2023/03/17 07:02:01;;;;;;;;;;;;;;;2.79;nan;98974.53;5024775;28;19924;-58
2023/03/17 07:04:27;;;;;;;;;;;;;;;3.06;nan;98976.66;5026672;28;19929;-59
2023/03/17 07:06:53;;;;;;;;;;;;;;;3.40;nan;98975.50;5027832;28;19986;-59
2023/03/17 07:09:19;;;;;;;;;;;;;;;3.63;nan;98964.88;5028176;28;20371;-56
2023/03/17 07:11:45;;;;;;;;;;;;;;;3.97;nan;98958.56;5025889;28;19927;-57
2023/03/17 07:14:10;;;;;;;;;;;;;;;4.40;nan;98959.91;5027623;28;19925;-59
2023/03/17 07:16:36;;;;;;;;;;;;;;;4.89;nan;98956.13;5025483;28;19929;-57
2023/03/17 07:19:02;;;;;;;;;;;;;;;5.48;nan;98953.19;5027644;28;19928;-59
2023/03/17 07:21:27;;;;;;;;;;;;;;;5.76;nan;98957.63;5025348;28;20020;-58
2023/03/17 07:23:53;;;;;;;;;;;;;;;6.17;nan;98962.91;5027463;28;20632;-58
2023/03/17 07:26:19;;;;;;;;;;;;;;;6.47;nan;98949.44;5024131;28;20269;-57
2023/03/17 07:28:45;;;;;;;;;;;;;;;6.67;nan;98959.63;5026998;28;19925;-57
2023/03/17 07:31:13;;;;;;;;;;;;;;;6.82;nan;98954.59;5025276;28;19956;-56
2023/03/17 07:33:38;;;;;;;;;;;;;;;7.07;nan;98946.09;5025613;28;19925;-59
2023/03/17 07:36:06;;;;;;;;;;;;;;;7.12;nan;98958.84;5027270;28;20367;-59
2023/03/17 07:38:32;;;;;;;;;;;;;;;7.37;nan;98946.94;5028328;28;19929;-57
2023/03/17 07:40:58;;;;;;;;;;;;;;;7.52;nan;98949.44;5025692;28;20318;-57
2023/03/17 07:43:24;;;;;;;;;;;;;;;7.70;nan;98934.97;5027412;28;19924;-57
2023/03/17 07:45:50;;;;;;;;;;;;;;;7.84;nan;98946.84;5030025;28;19960;-58
2023/03/17 07:48:16;;;;;;;;;;;;;;;8.05;nan;98934.84;5027175;28;19929;-57
2023/03/17 07:50:43;;;;;;;;;;;;;;;8.14;nan;98944.16;5026330;28;19931;-57
2023/03/17 07:53:09;;;;;;;;;;;;;;;8.21;nan;98928.81;5027402;28;20023;-58
2023/03/17 07:55:35;;;;;;;;;;;;;;;8.43;nan;98923.63;5027119;28;19928;-56
2023/03/17 07:58:01;;;;;;;;;;;;;;;8.50;nan;98923.56;5025085;28;19925;-58
2023/03/17 08:00:27;;;;;;;;;;;;;;;8.60;nan;98921.81;5024044;28;19968;-58
2023/03/17 08:02:55;;;;;;;;;;;;;;;8.75;nan;98921.69;5023644;28;19935;-58
2023/03/17 08:05:21;;;;;;;;;;;;;;;8.90;nan;98915.63;5028413;28;19921;-58
2023/03/17 08:07:47;;;;;;;;;;;;;;;9.03;nan;98918.09;5032946;28;19924;-59
2023/03/17 08:10:13;;;;;;;;;;;;;;;8.94;nan;98907.06;5024613;28;19925;-59
2023/03/17 08:12:38;;;;;;;;;;;;;;;8.91;nan;98912.22;5028598;28;19917;-58
2023/03/17 08:15:05;;;;;;;;;;;;;;;8.89;nan;98914.78;5028553;28;19921;-58
2023/03/17 08:17:30;;;;;;;;;;;;;;;9.04;nan;98914.66;5028998;28;20740;-58
2023/03/17 08:19:57;;;;;;;;;;;;;;;9.03;nan;98914.69;5028470;28;19925;-59
2023/03/17 08:22:23;;;;;;;;;;;;;;;9.09;nan;98906.94;5027967;28;19925;-57
2023/03/17 08:24:49;;;;;;;;;;;;;;;9.20;nan;98905.16;5026464;28;20472;-60
2023/03/17 08:27:15;;;;;;;;;;;;;;;9.10;nan;98909.50;5018155;28;19929;-55
2023/03/17 08:29:41;;;;;;;;;;;;;;;9.25;nan;98902.56;5020860;28;20236;-59
2023/03/17 08:32:07;;;;;;;;;;;;;;;9.15;nan;98905.19;5027427;28;19978;-59
2023/03/17 08:34:33;;;;;;;;;;;;;;;9.25;nan;98902.56;5025437;28;19925;-61
2023/03/17 08:36:59;;;;;;;;;;;;;;;9.42;nan;98913.47;5024061;28;20520;-60
2023/03/17 08:39:25;;;;;;;;;;;;;;;9.43;nan;98915.16;5027601;28;20120;-59
2023/03/17 08:41:51;;;;;;;;;;;;;;;9.52;nan;98912.50;5025295;28;19917;-60
2023/03/17 08:44:16;;;;;;;;;;;;;;;9.54;nan;98910.78;5024716;28;20409;-58
2023/03/17 08:46:42;;;;;;;;;;;;;;;9.75;nan;98920.78;5027243;28;20391;-59
2023/03/17 08:49:08;;;;;;;;;;;;;;;9.84;nan;98907.91;5023713;28;19932;-60
2023/03/17 08:51:35;;;;;;;;;;;;;;;10.03;nan;98899.09;5025484;28;20051;-60
2023/03/17 08:54:01;;;;;;;;;;;;;;;10.24;nan;98907.41;5023786;28;19927;-59
2023/03/17 08:56:27;;;;;;;;;;;;;;;10.12;nan;98905.81;5024700;28;19928;-60
2023/03/17 08:58:53;;;;;;;;;;;;;;;10.34;nan;98907.28;5027056;28;20010;-59
2023/03/17 09:01:19;;;;;;;;;;;;;;;10.65;nan;98902.53;5027258;28;19925;-59
2023/03/17 09:03:45;;;;;;;;;;;;;;;10.78;nan;98900.63;5026315;28;19932;-61
2023/03/17 09:06:12;;;;;;;;;;;;;;;10.68;nan;98909.34;5027797;28;19921;-64
2023/03/17 09:08:40;;;;;;;;;;;;;;;10.89;nan;98909.03;5022651;28;20011;-60
2023/03/17 09:11:07;;;;;;;;;;;;;;;11.10;nan;98907.84;5024706;28;19921;-59
2023/03/17 09:13:33;;;;;;;;;;;;;;;10.84;nan;98915.94;5028538;28;19924;-59
2023/03/17 09:16:00;;;;;;;;;;;;;;;11.02;nan;98920.78;5027283;28;19931;-60
2023/03/17 09:18:26;;;;;;;;;;;;;;;11.14;nan;98922.31;5031170;28;19972;-60
2023/03/17 09:20:51;;;;;;;;;;;;;;;11.56;nan;98913.84;5029193;28;20015;-59
2023/03/17 09:23:17;;;;;;;;;;;;;;;11.60;nan;98917.19;5043890;28;20380;-60
2023/03/17 09:25:43;;;;;;;;;;;;;;;11.26;nan;98920.38;5028598;28;19995;-58
2023/03/17 09:28:12;;;;;;;;;;;;;;;11.18;nan;98918.81;5026798;28;20062;-60
2023/03/17 09:30:43;;;;;;;;;;;;;;;11.01;nan;98919.09;5028615;28;19921;-60
2023/03/17 09:33:10;;;;;;;;;;;;;;;10.98;nan;98917.44;5030876;28;20047;-60
2023/03/17 09:35:36;;;;;;;;;;;;;;;11.50;nan;98902.84;5031878;28;19960;-60
2023/03/17 09:38:02;;;;;;;;;;;;;;;11.15;nan;98906.03;5030447;28;20138;-61
2023/03/17 09:40:54;;;;;;;;;;;;;;;11.23;nan;98892.19;5032596;28;20031;-60
2023/03/17 09:43:25;;;;;;;;;;;;;;;11.46;nan;98902.03;4984608;28;19922;-60
2023/03/17 09:45:51;;;;;;;;;;;;;;;11.40;nan;98891.91;4982783;28;19929;-60
2023/03/17 09:48:36;;;;;;;;;;;;;;;11.78;nan;98892.06;4981370;28;19925;-60
2023/03/17 09:51:04;;;;;;;;;;;;;;;12.21;nan;98888.63;4979427;28;20110;-60
2023/03/17 09:53:34;;;;;;;;;;;;;;;11.83;nan;98879.97;4981525;28;19928;-60
2023/03/17 09:56:04;;;;;;;;;;;;;;;12.22;nan;98885.16;4978373;28;19921;-60
2023/03/17 09:58:31;;;;;;;;;;;;;;;12.49;nan;98889.69;4980189;28;20024;-60
2023/03/17 10:00:56;;;;;;;;;;;;;;;12.23;nan;98885.13;4976691;28;19925;-60
2023/03/17 10:03:23;;;;;;;;;;;;;;;12.06;nan;98881.22;4982214;28;19972;-60
2023/03/17 10:05:49;;;;;;;;;;;;;;;11.91;nan;98872.09;4982600;28;19926;-60
2023/03/17 10:08:15;;;;;;;;;;;;;;;11.60;nan;98884.66;4981505;28;19925;-59
2023/03/17 10:10:48;;;;;;;;;;;;;;;11.49;nan;98871.19;4977145;28;19921;-59
2023/03/17 10:13:13;;;;;;;;;;;;;;;11.08;nan;98871.06;4979285;28;19922;-61
2023/03/17 10:15:46;;;;;;;;;;;;;;;11.05;nan;98873.69;4978820;28;19929;-60
2023/03/17 10:18:13;;;;;;;;;;;;;;;10.95;nan;98861.03;4966819;28;19922;-60
2023/03/17 10:20:51;;;;;;;;;;;;;;;10.98;nan;98855.88;5013863;28;19960;-60
2023/03/17 10:23:19;;;;;;;;;;;;;;;11.13;nan;98852.16;5028676;28;19925;-60
2023/03/17 10:25:45;;;;;;;;;;;;;;;11.33;nan;98859.53;5029229;28;20302;-61
2023/03/17 10:28:18;;;;;;;;;;;;;;;11.43;nan;98859.31;5028889;28;20185;-60
2023/03/17 10:30:44;;;;;;;;;;;;;;;11.37;nan;98853.47;5026887;28;20388;-61
2023/03/17 10:33:10;;;;;;;;;;;;;;;11.49;nan;98854.94;5030392;28;19932;-61
2023/03/17 10:35:38;;;;;;;;;;;;;;;11.53;nan;98854.84;5029115;28;19924;-59
2023/03/17 10:38:32;;;;;;;;;;;;;;;11.68;nan;98857.13;5030790;28;19921;-60
2023/03/17 10:40:59;;;;;;;;;;;;;;;11.84;nan;98860.25;5020642;28;19968;-59
2023/03/17 10:43:29;;;;;;;;;;;;;;;11.98;nan;98862.53;5026166;28;19931;-60
2023/03/17 10:45:59;;;;;;;;;;;;;;;11.83;nan;98859.44;5028384;28;20345;-59
2023/03/17 10:48:25;;;;;;;;;;;;;;;11.80;nan;98853.47;5030699;28;19921;-58
2023/03/17 10:50:51;;;;;;;;;;;;;;;11.73;nan;98846.78;5030340;28;19967;-59
2023/03/17 10:53:27;;;;;;;;;;;;;;;11.77;nan;98844.13;5038437;28;19983;-59
2023/03/17 10:55:58;;;;;;;;;;;;;;;11.94;nan;98851.47;5031421;28;19931;-58
2023/03/17 10:58:44;;;;;;;;;;;;;;;11.98;nan;98853.09;5031199;28;19925;-58
2023/03/17 11:01:19;;;;;;;;;;;;;;;12.27;nan;98863.59;5013325;28;19924;-59
2023/03/17 11:03:45;;;;;;;;;;;;;;;12.10;nan;98850.28;5029377;28;19921;-59
2023/03/17 11:06:11;;;;;;;;;;;;;;;12.23;nan;98853.41;5029283;28;19975;-60
2023/03/17 11:08:40;;;;;;;;;;;;;;;12.38;nan;98842.81;5029713;28;19920;-59
2023/03/17 11:11:07;;;;;;;;;;;;;;;12.48;nan;98849.41;5042978;28;20018;-60
2023/03/17 11:13:33;;;;;;;;;;;;;;;12.40;nan;98850.47;5021933;28;20424;-59
2023/03/17 11:16:23;;;;;;;;;;;;;;;12.66;nan;98851.56;5029316;28;19967;-60
2023/03/17 11:18:55;;;;;;;;;;;;;;;12.62;nan;98839.66;5029827;28;20439;-60
2023/03/17 11:21:24;;;;;;;;;;;;;;;12.70;nan;98849.75;5030621;28;20189;-60
2023/03/17 11:23:50;;;;;;;;;;;;;;;12.76;nan;98849.63;5029240;28;20384;-60
2023/03/17 11:26:39;;;;;;;;;;;;;;;12.73;nan;98834.28;5029497;28;19925;-60
2023/03/17 11:29:12;;;;;;;;;;;;;;;12.60;nan;98836.25;5025421;28;19924;-60
2023/03/17 11:31:41;;;;;;;;;;;;;;;12.72;nan;98832.56;5031711;28;19920;-62
2023/03/17 11:34:12;;;;;;;;;;;;;;;12.82;nan;98822.00;5030689;28;19960;-60
2023/03/17 11:36:37;;;;;;;;;;;;;;;12.83;nan;98821.13;5024432;28;19925;-60
2023/03/17 11:39:18;;;;;;;;;;;;;;;12.78;nan;98814.41;5024901;28;20313;-60
2023/03/17 11:41:44;;;;;;;;;;;;;;;12.52;nan;98807.31;5040337;28;19920;-59
2023/03/17 11:44:11;;;;;;;;;;;;;;;12.42;nan;98816.16;5026249;28;19925;-60
2023/03/17 11:46:42;;;;;;;;;;;;;;;12.42;nan;98805.88;5029323;28;20479;-63
2023/03/17 11:49:11;;;;;;;;;;;;;;;12.51;nan;98812.50;5029460;28;20392;-60
2023/03/17 11:51:48;;;;;;;;;;;;;;;12.64;nan;98783.91;5029299;28;20438;-59
2023/03/17 11:54:17;;;;;;;;;;;;;;;12.76;nan;98788.72;5028867;28;19921;-61
2023/03/17 11:56:48;;;;;;;;;;;;;;;12.64;nan;98786.47;5028592;28;20372;-60
2023/03/17 11:59:29;;;;;;;;;;;;;;;12.69;nan;98774.31;5027808;28;19932;-60
2023/03/17 12:01:58;;;;;;;;;;;;;;;12.83;nan;98779.13;5029967;28;19982;-60
2023/03/17 12:04:23;;;;;;;;;;;;;;;12.82;nan;98788.56;5029483;28;19921;-60
2023/03/17 12:06:51;;;;;;;;;;;;;;;12.95;nan;98776.22;5031049;28;20360;-60
2023/03/17 12:09:26;;;;;;;;;;;;;;;13.13;nan;98788.66;5026189;28;20326;-61
2023/03/17 12:11:53;;;;;;;;;;;;;;;13.30;nan;98772.75;5025948;28;19928;-60
2023/03/17 12:14:27;;;;;;;;;;;;;;;13.20;nan;98784.16;5025936;28;20043;-61
2023/03/17 12:16:59;;;;;;;;;;;;;;;13.27;nan;98780.56;5029238;28;20011;-59
2023/03/17 12:19:27;;;;;;;;;;;;;;;13.28;nan;98777.09;5026593;28;20389;-60
2023/03/17 12:22:10;;;;;;;;;;;;;;;13.23;nan;98777.22;5028298;28;19927;-60
2023/03/17 12:24:40;;;;;;;;;;;;;;;13.37;nan;98774.25;5028849;28;19924;-60
2023/03/17 12:27:35;;;;;;;;;;;;;;;13.46;nan;98761.13;5029580;28;19963;-59
2023/03/17 12:30:04;;;;;;;;;;;;;;;13.54;nan;98751.44;4996258;28;19925;-61
2023/03/17 12:32:43;;;;;;;;;;;;;;;13.50;nan;98761.88;4997648;28;19921;-60
2023/03/17 12:35:27;;;;;;;;;;;;;;;13.55;nan;98747.97;4987844;28;20189;-60
2023/03/17 12:37:55;;;;;;;;;;;;;;;13.58;nan;98745.31;4986779;28;20434;-60
2023/03/17 12:40:26;;;;;;;;;;;;;;;13.78;nan;98736.16;4994042;28;19922;-60
2023/03/17 12:43:00;;;;;;;;;;;;;;;13.65;nan;98735.69;4997476;28;19975;-60
2023/03/17 12:45:26;;;;;;;;;;;;;;;13.50;nan;98743.84;4998497;28;20470;-60
2023/03/17 12:48:10;;;;;;;;;;;;;;;13.34;nan;98732.28;4994898;28;19921;-60
2023/03/17 12:50:45;;;;;;;;;;;;;;;13.51;nan;98740.38;4997533;28;19921;-60
2023/03/17 12:53:14;;;;;;;;;;;;;;;13.48;nan;98733.59;5003766;28;19968;-60
2023/03/17 12:55:43;;;;;;;;;;;;;;;13.42;nan;98738.06;5002692;28;20007;-60
2023/03/17 12:58:27;;;;;;;;;;;;;;;13.50;nan;98734.38;5003121;28;19960;-60
2023/03/17 13:01:01;;;;;;;;;;;;;;;13.24;nan;98734.28;5001023;28;19922;-60
2023/03/17 13:03:30;;;;;;;;;;;;;;;13.30;nan;98728.97;5000914;28;19957;-59
2023/03/17 13:06:00;;;;;;;;;;;;;;;13.26;nan;98712.75;5010019;28;20415;-60
2023/03/17 13:08:31;;;;;;;;;;;;;;;13.34;nan;98709.97;5029372;28;20397;-60
2023/03/17 13:11:12;;;;;;;;;;;;;;;13.35;nan;98715.97;5030176;28;19932;-61
2023/03/17 13:13:47;;;;;;;;;;;;;;;13.31;nan;98720.34;5032231;28;19920;-60